createdAt,value
2023-02-23T00:02:20.440Z,60.10
2023-02-23T00:07:24.149Z,61.70
2023-02-23T00:12:27.740Z,73.30
2023-02-23T00:17:32.946Z,71.10
2023-02-23T00:22:36.351Z,56.20
2023-02-23T00:27:44.055Z,60.80
2023-02-23T00:32:48.703Z,58.00
2023-02-23T00:37:52.408Z,62.40
2023-02-23T00:42:57.547Z,71.00
2023-02-23T00:48:02.990Z,61.70
2023-02-23T00:53:06.471Z,53.60
2023-02-23T00:58:10.355Z,65.40
2023-02-23T01:03:13.962Z,74.10
2023-02-23T01:08:18.562Z,55.60
2023-02-23T01:13:23.182Z,63.90
2023-02-23T01:18:27.029Z,57.60
2023-02-23T01:23:32.066Z,57.50
2023-02-23T01:28:35.509Z,69.00
2023-02-23T01:33:39.352Z,55.90
2023-02-23T01:38:42.762Z,60.90
2023-02-23T01:43:57.890Z,64.50
2023-02-23T01:49:03.229Z,65.20
2023-02-23T01:54:10.361Z,67.00
2023-02-23T01:59:17.794Z,62.40
2023-02-23T02:04:24.648Z,70.70
2023-02-23T02:09:28.353Z,60.20
2023-02-23T02:14:32.813Z,65.50
2023-02-23T02:20:30.672Z,63.90
2023-02-23T02:25:54.861Z,62.90
2023-02-23T02:31:35.667Z,64.30
2023-02-23T02:37:00.081Z,57.30
2023-02-23T02:42:17.352Z,57.90
2023-02-23T02:47:29.168Z,62.00
2023-02-23T02:52:39.726Z,62.20
2023-02-23T02:57:47.489Z,55.80
2023-02-23T03:03:09.538Z,70.00
2023-02-23T03:08:39.269Z,82.90
2023-02-23T03:14:13.692Z,67.90
2023-02-23T03:19:42.914Z,70.50
2023-02-23T03:25:12.664Z,70.40
2023-02-23T03:30:41.741Z,81.70
2023-02-23T03:36:10.636Z,72.40
2023-02-23T03:41:35.755Z,68.30
2023-02-23T03:46:59.517Z,70.60
2023-02-23T03:52:27.404Z,69.70
2023-02-23T03:57:53.355Z,72.00
2023-02-23T04:03:17.785Z,73.60
2023-02-23T04:08:43.598Z,80.60
2023-02-23T04:13:53.843Z,70.00
2023-02-23T04:18:57.282Z,75.40
2023-02-23T04:24:00.696Z,74.80
2023-02-23T04:29:04.164Z,79.50
2023-02-23T04:34:07.691Z,73.20
2023-02-23T04:39:11.145Z,72.30
2023-02-23T04:44:14.513Z,79.50
2023-02-23T04:49:17.960Z,78.50
2023-02-23T04:54:21.352Z,83.50
2023-02-23T04:59:24.904Z,79.60
2023-02-23T05:04:28.412Z,69.10
2023-02-23T05:09:32.747Z,87.20
2023-02-23T05:14:36.328Z,76.40
2023-02-23T05:19:39.740Z,73.90
2023-02-23T05:24:43.468Z,71.10
2023-02-23T05:29:46.878Z,76.70
2023-02-23T05:34:50.254Z,81.80
2023-02-23T05:39:53.747Z,80.30
2023-02-23T05:44:57.181Z,74.60
2023-02-23T05:50:00.746Z,86.80
2023-02-23T05:55:05.089Z,85.30
2023-02-23T06:00:11.381Z,72.30
2023-02-23T06:05:14.979Z,76.30
2023-02-23T06:10:18.940Z,86.60
2023-02-23T06:15:22.384Z,84.20
2023-02-23T06:20:26.121Z,92.10
2023-02-23T06:25:29.787Z,81.30
2023-02-23T06:30:33.193Z,85.10
2023-02-23T06:35:36.590Z,89.40
2023-02-23T06:40:40.895Z,85.20
2023-02-23T06:45:45.781Z,90.40
2023-02-23T06:50:49.332Z,89.90
2023-02-23T06:55:52.763Z,85.90
2023-02-23T07:00:56.751Z,86.70
2023-02-23T07:06:00.182Z,90.70
2023-02-23T07:11:08.976Z,88.60
2023-02-23T07:16:14.399Z,85.50
2023-02-23T07:21:18.333Z,92.30
2023-02-23T07:26:22.060Z,85.30
2023-02-23T07:31:26.025Z,81.90
2023-02-23T07:36:29.563Z,93.20
2023-02-23T07:41:33.046Z,86.50
2023-02-23T07:46:37.040Z,87.70
2023-02-23T07:51:41.508Z,82.30
2023-02-23T07:56:44.852Z,84.90
2023-02-23T08:01:48.434Z,83.10
2023-02-23T08:06:51.761Z,89.00
2023-02-23T08:11:55.158Z,81.40
2023-02-23T08:17:01.018Z,82.30
2023-02-23T08:22:04.825Z,82.30
2023-02-23T08:27:08.246Z,76.40
2023-02-23T08:32:11.836Z,78.50
2023-02-23T08:37:15.502Z,81.40
2023-02-23T08:42:46.537Z,77.10
2023-02-23T08:48:07.272Z,84.90
2023-02-23T08:53:11.238Z,103.50
2023-02-23T08:58:14.687Z,105.90
2023-02-23T09:03:18.378Z,122.80
2023-02-23T09:08:22.287Z,78.60
2023-02-23T09:13:25.714Z,70.60
2023-02-23T09:18:30.078Z,70.10
2023-02-23T09:23:34.195Z,73.50
2023-02-23T09:28:39.209Z,72.30
2023-02-23T09:33:42.822Z,157.60
2023-02-23T09:38:49.276Z,128.70
2023-02-23T09:44:01.564Z,120.70
2023-02-23T09:49:12.146Z,113.20
2023-02-23T09:54:18.066Z,89.00
2023-02-23T09:59:22.354Z,73.00
2023-02-23T10:04:30.251Z,82.90
2023-02-23T10:09:54.598Z,70.90
2023-02-23T10:15:12.162Z,94.60
2023-02-23T10:20:25.444Z,256.70
2023-02-23T10:25:33.975Z,103.50
2023-02-23T10:30:39.722Z,80.90
2023-02-23T10:35:44.523Z,77.30
2023-02-23T10:40:56.156Z,79.20
2023-02-23T10:45:59.624Z,103.10
2023-02-23T10:51:03.899Z,71.10
2023-02-23T10:56:10.662Z,58.70
2023-02-23T11:01:16.868Z,56.20
2023-02-23T11:06:32.039Z,60.40
2023-02-23T11:11:35.498Z,57.30
2023-02-23T11:16:39.677Z,54.90
2023-02-23T11:21:51.537Z,53.30
2023-02-23T11:32:09.576Z,54.00
2023-02-23T11:37:21.063Z,50.80
2023-02-23T11:42:26.569Z,49.30
2023-02-23T11:47:31.757Z,57.90
2023-02-23T11:52:35.878Z,52.50
2023-02-23T11:57:39.258Z,57.90
2023-02-23T12:02:51.033Z,54.00
2023-02-23T12:08:01.123Z,55.90
2023-02-23T12:13:18.902Z,59.80
2023-02-23T12:18:37.812Z,50.50
2023-02-23T12:23:46.020Z,54.50
2023-02-23T12:28:58.110Z,61.90
2023-02-23T12:34:05.006Z,47.10
2023-02-23T12:39:21.222Z,47.00
2023-02-23T12:44:37.023Z,45.90
2023-02-23T12:49:44.551Z,47.10
2023-02-23T12:54:48.323Z,53.10
2023-02-23T13:00:30.250Z,47.20
2023-02-23T13:05:39.330Z,51.90
2023-02-23T13:10:51.458Z,43.60
2023-02-23T13:16:03.086Z,43.50
2023-02-23T13:21:14.714Z,50.80
2023-02-23T13:26:30.494Z,48.80
2023-02-23T13:31:36.787Z,47.50
2023-02-23T13:36:42.364Z,44.40
2023-02-23T13:41:51.325Z,46.60
2023-02-23T13:47:00.460Z,47.70
2023-02-23T13:52:14.110Z,48.00
2023-02-23T13:57:17.586Z,47.50
2023-02-23T14:02:34.352Z,40.60
2023-02-23T14:07:43.405Z,44.60
2023-02-23T14:13:06.498Z,40.20
2023-02-23T14:18:29.838Z,37.80
2023-02-23T14:23:48.630Z,43.50
2023-02-23T14:29:35.345Z,42.30
2023-02-23T14:34:48.291Z,44.30
2023-02-23T14:39:53.868Z,41.90
2023-02-23T14:45:03.785Z,38.80
2023-02-23T14:50:16.769Z,44.80
2023-02-23T14:55:23.781Z,40.30
2023-02-23T15:00:31.774Z,42.00
2023-02-23T15:05:41.962Z,46.60
2023-02-23T15:10:47.912Z,45.00
2023-02-23T15:15:51.450Z,39.30
2023-02-23T15:20:55.135Z,42.60
2023-02-23T15:25:59.107Z,43.00
2023-02-23T15:31:04.044Z,39.80
2023-02-23T15:36:09.781Z,41.40
2023-02-23T15:41:29.184Z,47.20
2023-02-23T15:46:35.005Z,50.20
2023-02-23T15:51:43.856Z,58.00
2023-02-23T15:56:50.672Z,48.60
2023-02-23T16:01:54.476Z,46.50
2023-02-23T16:07:14.923Z,47.80
2023-02-23T16:12:22.315Z,49.60
2023-02-23T16:17:31.129Z,46.20
2023-02-23T16:22:36.143Z,45.90
2023-02-23T16:27:41.751Z,50.10
2023-02-23T16:32:45.389Z,52.40
2023-02-23T16:37:57.795Z,50.90
2023-02-23T16:43:02.129Z,53.50
2023-02-23T16:48:10.884Z,59.70
2023-02-23T16:53:14.686Z,52.20
2023-02-23T16:58:20.776Z,56.30
2023-02-23T17:03:26.620Z,74.70
2023-02-23T17:08:31.100Z,84.40
2023-02-23T17:13:35.495Z,70.30
2023-02-23T17:18:42.808Z,70.10
2023-02-23T17:23:50.226Z,70.40
2023-02-23T17:28:53.928Z,72.30
2023-02-23T17:33:57.712Z,67.40
2023-02-23T17:39:01.823Z,68.50
2023-02-23T17:44:05.514Z,68.20
2023-02-23T17:49:08.976Z,71.80
2023-02-23T17:54:12.387Z,80.70
2023-02-23T17:59:15.743Z,89.80
2023-02-23T18:04:19.107Z,81.10
2023-02-23T18:09:22.648Z,88.00
2023-02-23T18:14:26.124Z,88.80
2023-02-23T18:19:30.344Z,83.60
2023-02-23T18:24:35.642Z,95.00
2023-02-23T18:29:39.414Z,108.60
2023-02-23T18:34:42.895Z,96.30
2023-02-23T18:39:51.500Z,101.10
2023-02-23T18:44:55.008Z,97.00
2023-02-23T18:50:01.199Z,92.10
2023-02-23T18:55:06.739Z,94.60
2023-02-23T19:00:13.429Z,98.60
2023-02-23T19:05:18.494Z,92.80
2023-02-23T19:10:23.004Z,114.00
2023-02-23T19:15:26.414Z,91.80
2023-02-23T19:20:35.018Z,94.30
2023-02-23T19:25:38.801Z,111.40
2023-02-23T19:30:45.062Z,112.30
2023-02-23T19:35:49.685Z,124.30
2023-02-23T19:40:53.286Z,117.20
2023-02-23T19:46:01.960Z,113.50
2023-02-23T19:51:09.581Z,115.70
2023-02-23T19:56:15.894Z,121.40
2023-02-23T20:01:22.378Z,112.20
2023-02-23T20:06:29.959Z,109.80
2023-02-23T20:11:33.383Z,123.00
2023-02-23T20:16:37.035Z,108.80
2023-02-23T20:21:41.407Z,114.10
2023-02-23T20:26:45.862Z,119.50
2023-02-23T20:31:51.016Z,120.50
2023-02-23T20:36:55.204Z,109.40
2023-02-23T20:41:58.661Z,106.20
2023-02-23T20:47:02.110Z,121.70
2023-02-23T20:52:05.950Z,122.30
2023-02-23T20:57:09.435Z,122.00
2023-02-23T21:02:14.743Z,130.30
2023-02-23T21:07:21.636Z,139.00
2023-02-23T21:12:25.851Z,104.30
2023-02-23T21:17:29.345Z,100.10
2023-02-23T21:22:33.067Z,78.70
2023-02-23T21:27:36.669Z,83.60
2023-02-23T21:32:40.891Z,81.50
2023-02-23T21:37:44.329Z,83.00
2023-02-23T21:42:48.962Z,80.50
2023-02-23T21:47:52.395Z,79.90
2023-02-23T21:52:57.603Z,86.60
2023-02-23T21:58:01.327Z,89.00
2023-02-23T22:03:05.031Z,111.40
2023-02-23T22:08:08.529Z,105.60
2023-02-23T22:13:11.867Z,98.20
2023-02-23T22:18:15.479Z,86.30
2023-02-23T22:23:18.838Z,109.60
2023-02-23T22:28:22.236Z,87.40
2023-02-23T22:33:25.714Z,97.10
2023-02-23T22:38:30.102Z,96.00
2023-02-23T22:43:33.834Z,89.60
2023-02-23T22:48:37.530Z,91.00
2023-02-23T22:53:41.425Z,93.40
2023-02-23T22:58:45.218Z,90.80
2023-02-23T23:03:48.769Z,88.90
2023-02-23T23:08:55.059Z,90.80
2023-02-23T23:14:01.342Z,91.70
2023-02-23T23:19:07.367Z,101.80
2023-02-23T23:24:12.920Z,92.20
2023-02-23T23:29:17.350Z,91.00
2023-02-23T23:34:21.080Z,91.20
2023-02-23T23:39:25.677Z,101.40
2023-02-23T23:44:29.615Z,92.10
2023-02-23T23:49:37.102Z,94.60
2023-02-23T23:54:42.175Z,88.10
2023-02-23T23:59:46.811Z,95.40
